Skip Navigation LinksHome page > Weather > Current weather Skip Navigation Links

Current Weather

Chicago O'Hare Intl, Chicago

For information only: do not use for flight planning or navigation.
Latest weather
Observation time Friday, March 6, 2015 10:51 AM CST
Local time Friday, March 6, 2015 11:29 AM CST
Flight conditions Visual Meteorological Conditions
Winds
Wind direction South (190°)
Wind speed 18 mph
Visibility 10 mi.
Sky condition
Ceiling 25,000 ft. broken clouds
Cloud layer few clouds 10,000 ft.
Cloud layer broken clouds 25,000 ft.
Temperature 19°F
Dewpoint 7°F
Altimeter 30.34 in.Hg
Derived measurements
Relative humidity 59%
Wind chill 4°F
Density altitude -2537 ft.
Sea-level pressure 30.38 in.Hg
Remarks
Automated weather observing station with precipitation discriminator.
METAR KORD 061651Z 19016KT 10SM FEW100 BKN250 M07/M14 A3034 RMK AO2 SLP287 T10721139

Settings

Location code

InnerDrive.Weather 4.0.5505.0 Release CLR 4.0.30319.34014
Copyright ©2015 Inner Drive Technology. All rights reserved. Portions Copyright ©1986-2015 David Braverman.

Find weather

Site navigation


Skip Navigation Links

Place info

Page info

PayPal - The safer, easier way to pay online!

Return home.

Copyright ©2015 Inner Drive Technology. Purveyors of fine, hand-crafted computer software. Page printed 2015-03-06T17:29:19 UTC.